Time;durP1;ratioP1;P1;durP2;ratioP2;P2;SDS_P1;SDS_P2;PMS_P1;PMS_P2;Temp;Humidity;BMP_temperature;BMP_pressure;BME280_temperature;BME280_humidity;BME280_pressure;Samples;Min_cycle;Max_cycle;Signal;HPM_P1;HPM_P2
2021/05/22 00:02:21;;;;;;;1.67;0.63;;;10.50;89.40;;;;;;5020674;28;20028;-73
2021/05/22 00:04:47;;;;;;;2.10;0.50;;;10.40;89.90;;;;;;5040077;28;20021;-74
2021/05/22 00:07:13;;;;;;;1.77;0.55;;;10.40;89.30;;;;;;5042063;28;20033;-72
2021/05/22 00:09:38;;;;;;;0.40;0.40;;;10.40;88.80;;;;;;5041608;28;20471;-73
2021/05/22 00:12:04;;;;;;;1.85;0.68;;;10.50;88.40;;;;;;5039260;28;20083;-73
2021/05/22 00:14:30;;;;;;;1.30;0.50;;;10.50;88.00;;;;;;5039260;28;20026;-70
2021/05/22 00:16:56;;;;;;;1.38;0.35;;;10.40;87.40;;;;;;5033579;28;20541;-74
2021/05/22 00:19:21;;;;;;;1.60;0.50;;;10.50;86.70;;;;;;5029654;28;20090;-73
2021/05/22 00:21:47;;;;;;;1.77;0.50;;;10.50;85.70;;;;;;5032651;28;20022;-73
2021/05/22 00:24:13;;;;;;;1.25;0.43;;;10.50;86.00;;;;;;5031843;28;20104;-73
2021/05/22 00:26:39;;;;;;;4.15;1.23;;;10.50;85.10;;;;;;5041723;28;20025;-72
2021/05/22 00:29:04;;;;;;;1.70;0.55;;;10.60;84.50;;;;;;5051444;28;20041;-73
2021/05/22 00:31:32;;;;;;;5.97;0.47;;;10.50;84.10;;;;;;5048450;28;20390;-70
2021/05/22 00:33:57;;;;;;;1.02;0.40;;;10.50;84.30;;;;;;5034390;28;20087;-73
2021/05/22 00:36:23;;;;;;;1.08;0.47;;;10.50;83.90;;;;;;5043067;28;20025;-73
2021/05/22 00:38:48;;;;;;;3.92;0.65;;;10.40;84.10;;;;;;5050649;28;20036;-72
2021/05/22 00:41:14;;;;;;;4.05;0.50;;;10.30;83.50;;;;;;5051382;28;20036;-72
2021/05/22 00:43:40;;;;;;;2.05;0.52;;;10.40;83.40;;;;;;5051187;28;20481;-73
2021/05/22 00:46:05;;;;;;;2.53;0.70;;;10.30;83.50;;;;;;5051230;28;20029;-73
2021/05/22 00:48:31;;;;;;;3.30;0.40;;;10.40;85.30;;;;;;5051189;28;20580;-71
2021/05/22 00:50:57;;;;;;;2.30;0.60;;;10.30;83.50;;;;;;5050771;28;20078;-72
2021/05/22 00:53:22;;;;;;;0.82;0.20;;;10.20;83.80;;;;;;5042611;28;20386;-73
2021/05/22 00:55:49;;;;;;;1.25;0.32;;;10.30;86.10;;;;;;5043762;28;20371;-73
2021/05/22 00:58:15;;;;;;;1.98;0.50;;;10.10;84.70;;;;;;5031079;28;20053;-73
2021/05/22 01:00:43;;;;;;;1.85;0.40;;;10.20;85.30;;;;;;5030664;28;20053;-73
2021/05/22 01:03:16;;;;;;;4.57;0.35;;;10.10;84.80;;;;;;5046276;28;20040;-74
2021/05/22 01:05:43;;;;;;;0.95;0.30;;;10.00;85.10;;;;;;5041611;28;20078;-73
2021/05/22 01:08:16;;;;;;;2.65;0.30;;;10.00;85.60;;;;;;5034563;28;20056;-73
2021/05/22 01:10:43;;;;;;;1.88;0.63;;;10.00;86.10;;;;;;5036781;28;20044;-74
2021/05/22 01:13:12;;;;;;;0.98;0.40;;;10.00;86.10;;;;;;5030981;28;20068;-72
2021/05/22 01:15:40;;;;;;;2.10;0.63;;;10.00;86.70;;;;;;5033926;28;20025;-73
2021/05/22 01:18:07;;;;;;;2.05;0.40;;;10.00;87.10;;;;;;5034097;28;20056;-73
2021/05/22 01:20:38;;;;;;;2.05;0.47;;;9.90;87.60;;;;;;5033656;28;20463;-71
2021/05/22 01:23:20;;;;;;;1.55;0.43;;;9.90;88.00;;;;;;5053222;28;20052;-73
2021/05/22 01:25:47;;;;;;;1.67;0.40;;;9.90;88.10;;;;;;5049907;28;20421;-73
2021/05/22 01:28:13;;;;;;;1.52;0.45;;;9.90;88.50;;;;;;5052766;28;20512;-73
2021/05/22 01:30:40;;;;;;;1.40;0.50;;;9.90;89.30;;;;;;5038715;28;20033;-73
2021/05/22 01:33:07;;;;;;;0.70;0.30;;;9.90;89.00;;;;;;5042368;28;20033;-73
2021/05/22 01:35:33;;;;;;;1.40;0.22;;;9.90;89.40;;;;;;5052726;28;20486;-71
2021/05/22 01:37:59;;;;;;;4.38;0.50;;;9.90;89.80;;;;;;5052860;28;20059;-74
2021/05/22 01:40:25;;;;;;;1.55;0.50;;;9.80;90.10;;;;;;5053243;28;20057;-73
2021/05/22 01:42:51;;;;;;;1.63;0.40;;;9.80;90.10;;;;;;5052867;28;20037;-73
2021/05/22 01:45:21;;;;;;;0.93;0.32;;;9.80;90.30;;;;;;5053550;28;20036;-71
2021/05/22 01:47:48;;;;;;;2.30;0.50;;;9.80;90.50;;;;;;5044264;28;20029;-73
2021/05/22 01:50:17;;;;;;;3.15;0.50;;;9.80;90.50;;;;;;5053666;28;20425;-73
2021/05/22 01:52:45;;;;;;;2.63;0.50;;;9.90;90.40;;;;;;5050879;28;20024;-71
2021/05/22 01:55:13;;;;;;;1.08;0.22;;;9.90;90.50;;;;;;5035023;28;20071;-73
2021/05/22 01:57:39;;;;;;;1.10;0.30;;;9.90;90.70;;;;;;5023243;28;610658;-72
2021/05/22 02:00:07;;;;;;;1.50;0.30;;;9.90;90.60;;;;;;5045747;28;20029;-74
2021/05/22 02:02:34;;;;;;;1.67;0.50;;;9.90;90.90;;;;;;5034985;28;20033;-71
2021/05/22 02:05:04;;;;;;;0.82;0.38;;;9.90;90.70;;;;;;5034631;28;20036;-73
2021/05/22 02:07:34;;;;;;;3.42;0.77;;;9.90;90.80;;;;;;5045255;28;20018;-74
2021/05/22 02:10:00;;;;;;;0.80;0.45;;;9.90;90.90;;;;;;5032351;28;20029;-73
2021/05/22 02:12:28;;;;;;;0.40;0.30;;;9.90;90.90;;;;;;5054488;28;20540;-74
2021/05/22 02:14:54;;;;;;;2.78;0.45;;;9.80;90.90;;;;;;5053773;28;20032;-73
2021/05/22 02:17:23;;;;;;;0.55;0.40;;;9.80;91.00;;;;;;5046172;28;20053;-73
2021/05/22 02:19:51;;;;;;;1.67;0.60;;;9.80;91.70;;;;;;5044672;28;20029;-73
2021/05/22 02:22:23;;;;;;;1.95;0.38;;;9.80;91.90;;;;;;5033967;28;20029;-74
2021/05/22 02:24:50;;;;;;;1.83;0.60;;;9.80;91.90;;;;;;5040912;28;20066;-73
2021/05/22 02:27:16;;;;;;;2.15;0.75;;;9.90;92.00;;;;;;5053291;28;20044;-74
2021/05/22 02:29:44;;;;;;;1.98;0.50;;;9.80;92.40;;;;;;5045126;28;20045;-73
2021/05/22 02:32:12;;;;;;;1.92;0.52;;;9.80;93.00;;;;;;5042591;28;20029;-74
2021/05/22 02:34:58;;;;;;;2.88;0.50;;;9.80;94.90;;;;;;5033042;28;20047;-71
2021/05/22 02:37:28;;;;;;;3.83;0.75;;;9.80;95.50;;;;;;5033969;28;20082;-73
2021/05/22 02:39:57;;;;;;;1.20;0.40;;;9.80;98.30;;;;;;5048756;28;20032;-74
2021/05/22 02:42:24;;;;;;;0.93;0.63;;;9.60;99.20;;;;;;5044761;28;20104;-73
2021/05/22 02:44:53;;;;;;;1.00;0.40;;;9.50;99.90;;;;;;5051276;28;20014;-73
2021/05/22 02:47:19;;;;;;;4.13;0.70;;;;;;;;;;5053018;28;20040;-73
2021/05/22 02:49:48;;;;;;;3.67;0.52;;;9.00;99.90;;;;;;5052477;28;20114;-75
2021/05/22 02:52:19;;;;;;;1.95;0.47;;;8.80;99.90;;;;;;5048678;28;20033;-71
2021/05/22 02:54:49;;;;;;;2.72;0.50;;;8.70;99.90;;;;;;5032965;28;20478;-73
2021/05/22 02:57:16;;;;;;;1.65;0.30;;;8.60;99.90;;;;;;5045532;28;20045;-74
2021/05/22 02:59:43;;;;;;;0.90;0.40;;;8.50;99.90;;;;;;5053951;28;20057;-73
2021/05/22 03:02:10;;;;;;;1.85;0.70;;;8.40;99.90;;;;;;5054104;28;20041;-72
2021/05/22 03:04:36;;;;;;;1.48;0.75;;;8.30;99.90;;;;;;5043404;28;20025;-71
2021/05/22 03:07:03;;;;;;;3.40;0.70;;;8.30;99.90;;;;;;5044412;28;20390;-73
2021/05/22 03:09:29;;;;;;;3.22;0.70;;;8.30;99.90;;;;;;5046447;28;20040;-74
2021/05/22 03:11:55;;;;;;;1.95;0.40;;;8.30;99.90;;;;;;5019038;28;20033;-73
2021/05/22 03:14:20;;;;;;;1.95;0.50;;;8.30;99.90;;;;;;5046201;28;20099;-73
2021/05/22 03:16:46;;;;;;;3.38;0.68;;;8.30;99.90;;;;;;5047155;28;20068;-73
2021/05/22 03:19:12;;;;;;;1.20;0.60;;;8.30;99.90;;;;;;5053288;28;20044;-73
2021/05/22 03:21:38;;;;;;;2.83;0.70;;;8.30;99.90;;;;;;5032162;28;20029;-70
2021/05/22 03:24:05;;;;;;;2.60;0.73;;;8.30;99.90;;;;;;5052634;28;20035;-72
2021/05/22 03:26:31;;;;;;;1.77;0.60;;;8.30;99.90;;;;;;5051800;28;20037;-71
2021/05/22 03:28:56;;;;;;;5.13;0.85;;;8.40;99.90;;;;;;5046884;28;20560;-72
2021/05/22 03:31:22;;;;;;;2.63;0.70;;;8.40;99.90;;;;;;5032500;28;20112;-72
2021/05/22 03:33:48;;;;;;;2.15;0.70;;;8.40;99.90;;;;;;5049605;28;20029;-71
2021/05/22 03:36:14;;;;;;;2.05;0.80;;;8.50;99.90;;;;;;5048645;28;20092;-72
2021/05/22 03:38:39;;;;;;;4.30;0.80;;;8.40;99.90;;;;;;5022852;28;20506;-72
2021/05/22 03:41:05;;;;;;;4.40;0.90;;;8.40;99.90;;;;;;5042276;28;20144;-72
2021/05/22 03:43:31;;;;;;;1.77;0.60;;;8.40;99.90;;;;;;5040955;28;20474;-73
2021/05/22 03:45:57;;;;;;;1.75;0.75;;;8.40;99.90;;;;;;5040834;28;20085;-73
2021/05/22 03:48:22;;;;;;;3.28;0.60;;;8.40;99.90;;;;;;5040624;28;20043;-72
2021/05/22 03:50:48;;;;;;;2.22;0.57;;;8.40;99.90;;;;;;5020977;28;20029;-73
2021/05/22 03:53:14;;;;;;;0.90;0.73;;;8.50;99.90;;;;;;5040870;28;20080;-73
2021/05/22 03:55:40;;;;;;;2.05;0.63;;;8.50;99.90;;;;;;5042845;28;20061;-71
2021/05/22 03:58:07;;;;;;;1.77;0.63;;;8.50;99.90;;;;;;5051994;28;20053;-73
2021/05/22 04:00:33;;;;;;;3.33;0.80;;;8.50;99.90;;;;;;5053281;28;20428;-74
2021/05/22 04:02:59;;;;;;;2.97;0.70;;;8.50;99.90;;;;;;5051489;28;20032;-73
2021/05/22 04:05:24;;;;;;;3.40;0.68;;;8.60;99.90;;;;;;5053988;28;20041;-73
2021/05/22 04:07:50;;;;;;;3.85;0.68;;;8.60;99.90;;;;;;5050708;28;20070;-73
2021/05/22 04:10:16;;;;;;;2.67;0.52;;;8.60;99.90;;;;;;5053299;28;20041;-73
2021/05/22 04:12:41;;;;;;;2.97;0.70;;;8.70;99.90;;;;;;5060119;28;20021;-72
2021/05/22 04:15:08;;;;;;;1.75;0.52;;;8.70;99.90;;;;;;5067521;28;20608;-73
2021/05/22 04:17:33;;;;;;;2.60;0.50;;;8.80;99.90;;;;;;5051412;28;20394;-71
2021/05/22 04:19:59;;;;;;;3.35;0.50;;;8.80;99.90;;;;;;5044311;28;20048;-72
2021/05/22 04:22:25;;;;;;;4.38;0.88;;;8.90;99.90;;;;;;5050280;28;20044;-73
2021/05/22 04:24:50;;;;;;;4.10;0.88;;;8.90;99.90;;;;;;5051243;28;20067;-73
2021/05/22 04:27:16;;;;;;;2.85;0.65;;;8.90;99.90;;;;;;5051021;28;20083;-73
2021/05/22 04:29:42;;;;;;;1.30;0.50;;;8.90;99.90;;;;;;5033545;28;20494;-73
2021/05/22 04:32:07;;;;;;;2.92;0.52;;;8.90;99.90;;;;;;5031959;28;20084;-72
2021/05/22 04:34:33;;;;;;;2.83;0.43;;;8.90;99.90;;;;;;5032202;28;20030;-73
2021/05/22 04:36:59;;;;;;;1.45;0.57;;;8.90;99.90;;;;;;5041133;28;20020;-73
2021/05/22 04:39:25;;;;;;;2.58;0.68;;;8.90;99.90;;;;;;5031893;28;20029;-73
2021/05/22 04:41:50;;;;;;;1.63;0.35;;;8.80;99.90;;;;;;5034221;28;20540;-72
2021/05/22 04:44:16;;;;;;;1.58;0.60;;;8.80;99.90;;;;;;5043072;28;20029;-73
2021/05/22 04:46:42;;;;;;;2.85;0.55;;;8.80;99.90;;;;;;5050698;28;20382;-72
2021/05/22 04:49:08;;;;;;;6.07;1.13;;;8.70;99.90;;;;;;5035636;28;20104;-73
2021/05/22 04:51:34;;;;;;;1.77;0.50;;;8.70;99.90;;;;;;5026809;28;20111;-73
2021/05/22 04:54:05;;;;;;;1.58;0.93;;;8.70;99.90;;;;;;5049203;28;20035;-73
2021/05/22 04:56:31;;;;;;;2.28;0.57;;;8.70;99.90;;;;;;5022166;28;20360;-73
2021/05/22 04:58:57;;;;;;;1.52;0.60;;;8.80;99.90;;;;;;5031043;28;20041;-73
2021/05/22 05:01:23;;;;;;;2.85;0.50;;;8.90;99.90;;;;;;5033908;28;20058;-72
2021/05/22 05:03:48;;;;;;;1.33;0.40;;;8.90;99.90;;;;;;5037870;28;20053;-73
2021/05/22 05:06:14;;;;;;;1.05;0.40;;;9.00;99.90;;;;;;5037635;28;20021;-73
2021/05/22 05:08:42;;;;;;;2.35;0.60;;;9.20;99.90;;;;;;5040242;28;20410;-72
2021/05/22 05:11:07;;;;;;;1.30;0.43;;;9.40;99.90;;;;;;5017214;28;20498;-73
2021/05/22 05:13:33;;;;;;;2.47;0.47;;;9.50;99.90;;;;;;5050821;28;20025;-74
2021/05/22 05:15:59;;;;;;;1.05;0.47;;;9.50;99.90;;;;;;5048599;28;20021;-73
2021/05/22 05:18:24;;;;;;;3.05;0.60;;;9.50;99.90;;;;;;5032001;28;20068;-74
2021/05/22 05:20:50;;;;;;;1.45;0.43;;;9.50;99.90;;;;;;5038409;28;20490;-74
2021/05/22 05:23:16;;;;;;;1.83;0.50;;;9.50;99.90;;;;;;5050546;28;20068;-73
2021/05/22 05:25:42;;;;;;;1.85;0.63;;;9.60;99.90;;;;;;5032469;28;20052;-71
2021/05/22 05:28:07;;;;;;;1.15;0.45;;;9.60;99.90;;;;;;5050667;28;20033;-72
2021/05/22 05:30:33;;;;;;;2.55;0.40;;;9.60;99.90;;;;;;5050829;28;20500;-73
2021/05/22 05:32:59;;;;;;;1.85;0.57;;;9.80;99.90;;;;;;5032095;28;20690;-72
2021/05/22 05:35:24;;;;;;;1.67;0.50;;;9.90;99.90;;;;;;5043915;28;20100;-73
2021/05/22 05:37:50;;;;;;;3.25;0.88;;;10.00;99.90;;;;;;5030482;28;20033;-73
2021/05/22 05:40:19;;;;;;;6.63;1.30;;;10.10;99.90;;;;;;5032323;28;20065;-73
2021/05/22 05:42:49;;;;;;;5.43;1.13;;;10.10;99.80;;;;;;5031354;28;20112;-73
2021/05/22 05:45:15;;;;;;;2.15;0.68;;;10.20;99.90;;;;;;5032995;28;20113;-74
2021/05/22 05:47:41;;;;;;;2.17;0.52;;;10.20;99.90;;;;;;5048768;28;20458;-71
2021/05/22 05:50:07;;;;;;;2.38;1.00;;;10.30;99.60;;;;;;5033789;28;20063;-73
2021/05/22 05:52:33;;;;;;;1.02;0.90;;;10.30;98.40;;;;;;5052478;28;20029;-73
2021/05/22 05:54:59;;;;;;;2.05;0.70;;;10.40;97.30;;;;;;5053672;28;20040;-75
2021/05/22 05:57:25;;;;;;;4.97;0.63;;;10.40;97.40;;;;;;5041278;28;20046;-73
2021/05/22 05:59:50;;;;;;;2.20;1.10;;;10.50;97.00;;;;;;5030686;28;20033;-74
2021/05/22 06:02:16;;;;;;;3.10;0.70;;;10.50;97.00;;;;;;5055128;28;20398;-73
2021/05/22 06:04:41;;;;;;;2.25;0.70;;;10.50;97.50;;;;;;5055383;28;20450;-71
2021/05/22 06:07:07;;;;;;;2.20;0.65;;;10.70;97.70;;;;;;5026324;28;20115;-73
2021/05/22 06:09:33;;;;;;;2.28;0.60;;;10.80;97.50;;;;;;5043513;28;20391;-72
2021/05/22 06:11:59;;;;;;;4.30;0.85;;;10.90;97.00;;;;;;5035114;28;20036;-73
2021/05/22 06:14:31;;;;;;;4.45;0.63;;;11.00;96.30;;;;;;5043897;28;20037;-75
2021/05/22 06:16:57;;;;;;;3.65;0.80;;;11.00;95.80;;;;;;5053506;28;20112;-73
2021/05/22 06:19:22;;;;;;;2.75;0.80;;;11.10;94.50;;;;;;5054447;28;20061;-73
2021/05/22 06:21:48;;;;;;;2.75;0.73;;;11.10;95.30;;;;;;5052716;28;20072;-73
2021/05/22 06:24:14;;;;;;;3.78;1.00;;;11.20;95.90;;;;;;5040983;28;20057;-73
2021/05/22 06:26:39;;;;;;;3.10;0.88;;;11.30;93.00;;;;;;5034310;28;20087;-73
2021/05/22 06:29:05;;;;;;;4.10;1.02;;;11.50;92.20;;;;;;5034027;28;20363;-73
2021/05/22 06:31:31;;;;;;;2.60;0.95;;;11.70;91.60;;;;;;5025453;28;20170;-73
2021/05/22 06:33:57;;;;;;;3.85;1.00;;;11.90;90.50;;;;;;5048099;28;20028;-73
2021/05/22 06:36:23;;;;;;;4.53;1.17;;;12.10;86.20;;;;;;5037730;28;20382;-74
2021/05/22 06:38:49;;;;;;;2.88;0.82;;;12.20;84.60;;;;;;5060882;28;20401;-74
2021/05/22 06:41:15;;;;;;;4.50;0.98;;;12.30;83.70;;;;;;5040854;28;20030;-73
2021/05/22 06:43:41;;;;;;;5.03;0.90;;;12.40;83.50;;;;;;5044064;28;20115;-74
2021/05/22 06:46:49;;;;;;;2.65;0.70;;;12.50;82.10;;;;;;5052378;28;20488;-73
2021/05/22 06:48:55;;;;;;;6.57;1.48;;;12.70;80.00;;;;;;5034902;28;20072;-75
2021/05/22 06:51:21;;;;;;;2.95;0.90;;;12.80;77.80;;;;;;5041958;28;20139;-77
2021/05/22 06:53:46;;;;;;;7.35;1.20;;;12.90;77.60;;;;;;5043999;28;20477;-72
2021/05/22 06:56:12;;;;;;;6.95;1.30;;;12.90;76.60;;;;;;5043275;28;20041;-73
2021/05/22 06:58:38;;;;;;;6.75;1.60;;;13.10;75.90;;;;;;5043177;28;20053;-74
2021/05/22 07:01:03;;;;;;;2.28;1.02;;;13.20;74.60;;;;;;5024617;28;20570;-72
2021/05/22 07:03:29;;;;;;;4.60;1.10;;;13.30;74.70;;;;;;5040851;28;20033;-73
2021/05/22 07:05:57;;;;;;;8.32;1.20;;;13.40;72.70;;;;;;5047759;28;20032;-72
2021/05/22 07:08:22;;;;;;;10.35;1.40;;;13.30;71.50;;;;;;5034156;28;20498;-71
2021/05/22 07:10:48;;;;;;;7.18;1.55;;;13.40;70.60;;;;;;5033285;28;20030;-72
2021/05/22 07:13:14;;;;;;;3.53;1.00;;;13.40;70.50;;;;;;5034604;28;20030;-71
2021/05/22 07:15:39;;;;;;;4.45;1.40;;;13.60;69.40;;;;;;5036053;28;20425;-72
2021/05/22 07:18:05;;;;;;;5.25;1.35;;;13.60;67.10;;;;;;5044616;28;20402;-70
2021/05/22 07:20:31;;;;;;;4.25;1.08;;;13.50;67.90;;;;;;5041689;28;20223;-71
2021/05/22 07:22:56;;;;;;;5.22;1.00;;;13.60;67.20;;;;;;5041867;28;20416;-73
2021/05/22 07:25:24;;;;;;;2.38;0.68;;;13.50;67.40;;;;;;5027020;28;20033;-73
2021/05/22 07:27:50;;;;;;;7.00;1.35;;;13.40;66.50;;;;;;5044199;28;20025;-72
2021/05/22 07:30:16;;;;;;;3.90;1.20;;;13.40;66.90;;;;;;5041716;28;20045;-74
2021/05/22 07:32:43;;;;;;;3.53;0.77;;;13.40;66.60;;;;;;5043606;28;20029;-70
2021/05/22 07:35:13;;;;;;;5.32;1.23;;;13.40;67.50;;;;;;5042749;28;20036;-71
2021/05/22 07:37:39;;;;;;;5.93;1.13;;;13.30;67.20;;;;;;5042350;28;20017;-71
2021/05/22 07:40:07;;;;;;;8.02;1.20;;;13.50;67.00;;;;;;5022960;28;20029;-70
2021/05/22 07:42:32;;;;;;;4.80;1.20;;;13.50;65.50;;;;;;5042621;28;20037;-71
2021/05/22 07:44:58;;;;;;;6.15;1.20;;;13.50;65.90;;;;;;5044036;28;20029;-72
2021/05/22 07:47:24;;;;;;;5.72;1.23;;;13.60;65.40;;;;;;5041285;28;20382;-71
2021/05/22 07:49:51;;;;;;;4.18;1.20;;;13.60;64.90;;;;;;5044894;28;20123;-70
2021/05/22 07:52:18;;;;;;;5.45;1.60;;;13.70;64.50;;;;;;5048417;28;20451;-71
2021/05/22 07:54:45;;;;;;;6.55;1.25;;;13.90;64.60;;;;;;5042748;28;20032;-69
2021/05/22 07:57:12;;;;;;;4.93;1.00;;;14.00;65.00;;;;;;5051312;28;20124;-71
2021/05/22 07:59:38;;;;;;;4.20;1.25;;;13.90;64.50;;;;;;5019424;28;20037;-71
2021/05/22 08:02:05;;;;;;;4.20;0.90;;;13.90;64.60;;;;;;5032835;28;20030;-71
2021/05/22 08:04:31;;;;;;;4.88;1.00;;;14.00;64.60;;;;;;5041677;28;20037;-71
2021/05/22 08:06:57;;;;;;;4.35;1.00;;;14.00;63.50;;;;;;5050906;28;20108;-70
2021/05/22 08:09:23;;;;;;;4.22;0.80;;;14.20;62.90;;;;;;5051407;28;20111;-71
2021/05/22 08:11:49;;;;;;;7.80;1.25;;;14.30;61.00;;;;;;5033130;28;20537;-69
2021/05/22 08:14:15;;;;;;;5.90;1.10;;;14.30;60.30;;;;;;5035488;28;20037;-71
2021/05/22 08:16:41;;;;;;;2.92;0.77;;;14.20;59.80;;;;;;5040971;28;20085;-70
2021/05/22 08:19:07;;;;;;;3.40;0.80;;;14.20;60.00;;;;;;5033583;28;20136;-72
2021/05/22 08:21:34;;;;;;;2.90;0.90;;;14.10;60.10;;;;;;5040095;28;20077;-71
2021/05/22 08:24:00;;;;;;;3.58;0.60;;;14.20;58.80;;;;;;5023183;28;20037;-71
2021/05/22 08:26:26;;;;;;;3.90;0.80;;;14.40;58.50;;;;;;5032059;28;20038;-71
2021/05/22 08:28:53;;;;;;;3.30;0.90;;;14.50;58.10;;;;;;5032716;28;20108;-69
2021/05/22 08:31:19;;;;;;;4.45;0.90;;;14.80;57.40;;;;;;5032582;28;20087;-72
2021/05/22 08:33:45;;;;;;;2.75;0.90;;;14.90;55.80;;;;;;5032258;28;20026;-72
2021/05/22 08:36:12;;;;;;;4.95;0.75;;;14.90;55.70;;;;;;5047631;28;20031;-74
2021/05/22 08:38:38;;;;;;;5.15;0.95;;;15.00;55.00;;;;;;5037408;28;20428;-74
2021/05/22 08:41:05;;;;;;;5.05;1.40;;;15.00;53.90;;;;;;5037875;28;20033;-73
2021/05/22 08:43:31;;;;;;;3.90;0.63;;;15.10;54.50;;;;;;5031978;28;20025;-75
2021/05/22 08:45:57;;;;;;;1.98;0.80;;;15.20;53.00;;;;;;5033248;28;20129;-70
2021/05/22 08:48:23;;;;;;;2.88;0.70;;;15.20;52.20;;;;;;5050875;28;20514;-71
2021/05/22 08:50:48;;;;;;;2.75;0.95;;;15.20;53.30;;;;;;5035667;28;20034;-75
2021/05/22 08:53:14;;;;;;;3.85;0.90;;;15.20;52.50;;;;;;5040146;28;20074;-76
2021/05/22 08:55:40;;;;;;;2.55;0.68;;;15.20;52.00;;;;;;5036776;28;20105;-72
2021/05/22 08:58:07;;;;;;;1.42;0.70;;;15.40;52.60;;;;;;5031549;28;20060;-73
2021/05/22 09:00:43;;;;;;;5.22;1.25;;;15.60;53.00;;;;;;5033210;28;20103;-77
2021/05/22 09:03:11;;;;;;;2.78;0.85;;;15.90;51.50;;;;;;5036659;28;20029;-77
2021/05/22 09:05:38;;;;;;;4.18;0.98;;;15.80;49.60;;;;;;5035995;28;20018;-74
2021/05/22 09:08:11;;;;;;;2.67;1.10;;;15.70;50.20;;;;;;5055386;28;20056;-75
2021/05/22 09:10:39;;;;;;;3.75;1.05;;;15.60;50.00;;;;;;5059373;28;20096;-75
2021/05/22 09:13:28;;;;;;;5.25;0.82;;;15.70;50.50;;;;;;5062072;28;20066;-74
2021/05/22 09:15:59;;;;;;;1.58;0.80;;;15.80;50.80;;;;;;5062227;28;20024;-74
2021/05/22 09:18:35;;;;;;;2.55;0.90;;;16.00;49.60;;;;;;5045186;28;20093;-74
2021/05/22 09:21:04;;;;;;;5.32;0.77;;;16.10;49.40;;;;;;5041568;28;20079;-74
2021/05/22 09:23:32;;;;;;;2.40;0.75;;;16.20;48.10;;;;;;5052768;28;20025;-75
2021/05/22 09:26:17;;;;;;;3.97;1.20;;;16.30;47.00;;;;;;5051870;28;20045;-76
2021/05/22 09:28:50;;;;;;;2.38;0.70;;;16.40;48.20;;;;;;5055830;28;20021;-71
2021/05/22 09:31:21;;;;;;;2.83;0.60;;;16.50;46.90;;;;;;5044031;28;20614;-72
2021/05/22 09:33:48;;;;;;;4.13;1.00;;;16.60;47.00;;;;;;5040629;28;20038;-74
2021/05/22 09:36:15;;;;;;;3.25;1.00;;;16.90;46.70;;;;;;5034839;28;20378;-73
2021/05/22 09:38:43;;;;;;;5.22;1.02;;;17.00;45.70;;;;;;5035567;28;20030;-72
2021/05/22 09:41:37;;;;;;;3.30;0.82;;;17.00;45.40;;;;;;5034986;28;20488;-73
2021/05/22 09:44:13;;;;;;;1.77;0.60;;;17.10;46.60;;;;;;5050505;28;20033;-73
2021/05/22 09:46:45;;;;;;;1.52;0.70;;;17.30;45.40;;;;;;5055700;28;20036;-73
2021/05/22 09:49:21;;;;;;;2.90;1.40;;;17.20;45.60;;;;;;5054352;28;20060;-73
2021/05/22 09:52:19;;;;;;;3.42;0.90;;;17.20;45.30;;;;;;5055012;28;20465;-71
2021/05/22 09:54:51;;;;;;;3.20;0.77;;;17.10;45.40;;;;;;5009836;28;20033;-70
2021/05/22 09:57:40;;;;;;;3.38;0.75;;;17.00;46.40;;;;;;5049745;28;20037;-72
2021/05/22 10:00:15;;;;;;;3.90;0.90;;;17.10;44.40;;;;;;5042562;28;20509;-72
2021/05/22 10:02:51;;;;;;;2.72;0.60;;;17.20;44.90;;;;;;5033594;28;20029;-72
2021/05/22 10:05:19;;;;;;;4.28;0.63;;;17.10;44.50;;;;;;5033032;28;20450;-70
2021/05/22 10:07:46;;;;;;;3.67;0.73;;;17.10;45.10;;;;;;5032862;28;20102;-74
2021/05/22 10:10:16;;;;;;;1.70;0.80;;;17.10;45.70;;;;;;5054342;28;20033;-70
2021/05/22 10:12:44;;;;;;;3.80;1.05;;;17.20;45.50;;;;;;5054933;28;20056;-79
2021/05/22 10:15:11;;;;;;;3.10;1.20;;;17.50;44.80;;;;;;5053996;28;20123;-72
2021/05/22 10:17:37;;;;;;;3.33;1.10;;;17.70;43.20;;;;;;5054901;28;20025;-72
2021/05/22 10:20:05;;;;;;;2.90;1.00;;;17.90;44.20;;;;;;5054540;28;20039;-73
2021/05/22 10:22:32;;;;;;;2.35;1.13;;;17.90;43.30;;;;;;5054854;28;20025;-73
2021/05/22 10:24:58;;;;;;;3.40;1.10;;;18.10;42.50;;;;;;5053609;28;20116;-72
2021/05/22 10:27:24;;;;;;;3.80;1.08;;;18.20;42.90;;;;;;5047929;28;20033;-72
2021/05/22 10:29:50;;;;;;;4.25;1.40;;;18.40;43.60;;;;;;5054387;28;20048;-73
2021/05/22 10:32:25;;;;;;;4.30;0.85;;;18.80;43.20;;;;;;5037375;28;20088;-70
2021/05/22 10:34:51;;;;;;;5.18;0.75;;;19.10;41.40;;;;;;5033783;28;20058;-71
2021/05/22 10:37:38;;;;;;;5.20;1.05;;;19.10;41.60;;;;;;5015826;28;20052;-72
2021/05/22 10:40:05;;;;;;;4.43;0.90;;;18.90;41.90;;;;;;5033054;28;20084;-70
2021/05/22 10:42:32;;;;;;;4.78;1.10;;;18.60;42.50;;;;;;5033994;28;20112;-72
2021/05/22 10:44:58;;;;;;;5.07;0.93;;;18.30;41.20;;;;;;5033255;28;20018;-71
2021/05/22 10:47:28;;;;;;;5.10;0.85;;;18.40;41.60;;;;;;5015978;28;20021;-68
2021/05/22 10:49:57;;;;;;;3.63;1.02;;;18.30;40.00;;;;;;5033293;28;20493;-68
2021/05/22 10:52:25;;;;;;;4.82;0.82;;;18.30;40.30;;;;;;5033337;28;20072;-70
2021/05/22 10:54:58;;;;;;;2.20;0.77;;;18.10;41.20;;;;;;5033211;28;20026;-70
2021/05/22 10:57:24;;;;;;;3.92;0.70;;;18.00;41.20;;;;;;5043750;28;20053;-73
2021/05/22 11:00:18;;;;;;;1.98;0.63;;;17.80;41.70;;;;;;5053823;28;20036;-73
2021/05/22 11:02:53;;;;;;;4.30;0.63;;;17.70;42.00;;;;;;5033488;28;20021;-72
2021/05/22 11:05:28;;;;;;;1.23;0.60;;;17.60;42.10;;;;;;5032742;28;20030;-73
2021/05/22 11:08:08;;;;;;;1.75;0.90;;;17.60;41.50;;;;;;5050518;28;20082;-72
2021/05/22 11:10:34;;;;;;;2.80;0.68;;;17.60;40.90;;;;;;5052953;28;20037;-72
2021/05/22 11:13:00;;;;;;;2.50;0.60;;;18.00;39.70;;;;;;5052278;28;20047;-72
2021/05/22 11:15:39;;;;;;;1.92;0.60;;;18.20;37.70;;;;;;5052644;28;20427;-72
2021/05/22 11:18:06;;;;;;;3.58;0.80;;;18.20;36.30;;;;;;5052222;28;20025;-68
2021/05/22 11:20:33;;;;;;;1.67;0.50;;;18.10;36.10;;;;;;5051039;28;20044;-71
2021/05/22 11:23:01;;;;;;;2.60;0.70;;;18.10;36.30;;;;;;5051935;28;20425;-71
2021/05/22 11:25:47;;;;;;;1.83;0.70;;;18.00;37.80;;;;;;5053264;28;20450;-71
2021/05/22 11:28:19;;;;;;;2.90;0.60;;;17.90;37.80;;;;;;5052347;28;20460;-70
2021/05/22 11:30:47;;;;;;;2.60;1.02;;;17.80;39.20;;;;;;5052712;28;20394;-70
2021/05/22 11:33:22;;;;;;;1.52;0.60;;;17.90;39.40;;;;;;5040368;28;20425;-70
2021/05/22 11:35:51;;;;;;;2.80;0.70;;;18.10;37.90;;;;;;5033364;28;20021;-71
2021/05/22 11:38:22;;;;;;;3.40;0.60;;;18.30;38.30;;;;;;5033369;28;20103;-73
2021/05/22 11:40:52;;;;;;;2.78;0.85;;;18.50;38.10;;;;;;5033109;28;20029;-71
2021/05/22 11:43:18;;;;;;;;;;;18.70;36.80;;;;;;5032615;28;20024;-70
2021/05/22 11:45:53;;;;;;;2.92;0.73;;;18.80;36.40;;;;;;5032780;28;19905;-70
2021/05/22 11:48:32;;;;;;;1.48;0.65;;;19.20;36.20;;;;;;5044439;28;20493;-69
2021/05/22 11:50:58;;;;;;;1.67;0.60;;;19.60;35.00;;;;;;5045373;28;20048;-79
2021/05/22 11:53:28;;;;;;;1.65;0.65;;;19.70;34.90;;;;;;5032322;28;20105;-70
2021/05/22 11:55:55;;;;;;;;;;;19.80;34.60;;;;;;5032921;28;20061;-70
2021/05/22 11:58:21;;;;;;;1.50;0.60;;;19.60;35.10;;;;;;5032251;28;19925;-71
2021/05/22 12:00:47;;;;;;;2.80;0.73;;;19.60;35.90;;;;;;5036623;28;20334;-70
2021/05/22 12:03:24;;;;;;;3.03;0.55;;;19.80;35.00;;;;;;5051440;28;20098;-69
2021/05/22 12:05:50;;;;;;;4.97;0.70;;;19.80;35.20;;;;;;5052200;28;20025;-70
2021/05/22 12:08:21;;;;;;;2.22;0.85;;;19.80;35.80;;;;;;5033878;28;20055;-76
2021/05/22 12:10:48;;;;;;;1.67;0.70;;;19.90;34.80;;;;;;5032436;28;20048;-70
2021/05/22 12:13:14;;;;;;;1.52;0.40;;;20.20;34.40;;;;;;5031500;28;20021;-69
2021/05/22 12:15:42;;;;;;;3.70;0.60;;;20.70;34.50;;;;;;5040931;28;20029;-71
2021/05/22 12:18:08;;;;;;;4.05;0.73;;;20.70;33.40;;;;;;5033652;28;20075;-71
2021/05/22 12:20:54;;;;;;;3.03;0.80;;;20.50;34.10;;;;;;5052098;28;20036;-72
2021/05/22 12:23:29;;;;;;;1.80;0.80;;;20.50;35.20;;;;;;5051593;28;20105;-72
2021/05/22 12:25:56;;;;;;;3.45;1.00;;;20.60;34.70;;;;;;5051554;28;20028;-70
2021/05/22 12:28:23;;;;;;;4.63;0.85;;;21.00;34.00;;;;;;5052488;28;20025;-77
2021/05/22 12:30:52;;;;;;;2.42;0.70;;;21.60;34.20;;;;;;5033898;28;20054;-72
2021/05/22 12:33:18;;;;;;;2.80;0.82;;;22.00;33.70;;;;;;5051281;28;20021;-73
2021/05/22 12:35:48;;;;;;;2.33;0.98;;;21.80;33.50;;;;;;5051893;28;20028;-80
2021/05/22 12:38:16;;;;;;;2.63;0.75;;;21.70;34.20;;;;;;5051437;28;20467;-80
2021/05/22 12:40:50;;;;;;;2.30;0.60;;;21.30;33.10;;;;;;5051894;28;20029;-69
2021/05/22 12:43:17;;;;;;;2.38;0.68;;;21.00;33.30;;;;;;5050923;28;20021;-69
2021/05/22 12:45:46;;;;;;;3.30;0.80;;;20.80;34.20;;;;;;5029313;28;20028;-70
2021/05/22 12:48:25;;;;;;;3.58;0.88;;;20.70;34.20;;;;;;5033171;28;20461;-69
2021/05/22 12:50:51;;;;;;;2.33;0.63;;;20.60;34.20;;;;;;5050383;28;20048;-71
2021/05/22 12:53:31;;;;;;;1.92;0.50;;;20.50;34.50;;;;;;5050652;28;20020;-77
2021/05/22 12:56:04;;;;;;;1.90;0.63;;;20.40;35.30;;;;;;5053780;28;20064;-79